createdAt,value
2022-10-15T00:02:03.951Z,100932.53
2022-10-15T00:04:31.244Z,100924.75
2022-10-15T00:06:57.841Z,100922.13
2022-10-15T00:09:24.313Z,100919.75
2022-10-15T00:11:51.432Z,100908.31
2022-10-15T00:14:18.323Z,100915.75
2022-10-15T00:16:45.008Z,100904.84
2022-10-15T00:19:11.559Z,100902.28
2022-10-15T00:21:38.788Z,100890.97
2022-10-15T00:24:05.625Z,100889.88
2022-10-15T00:26:32.145Z,100890.63
2022-10-15T00:29:04.256Z,100877.69
2022-10-15T00:31:32.430Z,100883.06
2022-10-15T00:34:00.418Z,100886.09
2022-10-15T00:36:30.159Z,100882.00
2022-10-15T00:38:57.206Z,100882.28
2022-10-15T00:41:33.438Z,100887.31
2022-10-15T00:44:00.987Z,100888.13
2022-10-15T00:46:30.286Z,100893.16
2022-10-15T00:49:12.392Z,100895.22
2022-10-15T00:51:44.641Z,100894.53
2022-10-15T00:54:12.788Z,100889.91
2022-10-15T00:56:41.454Z,100880.75
2022-10-15T00:59:09.662Z,100884.56
2022-10-15T01:01:36.158Z,100885.47
2022-10-15T01:04:03.018Z,100889.75
2022-10-15T01:06:29.660Z,100885.72
2022-10-15T01:08:56.839Z,100885.47
2022-10-15T01:11:41.512Z,100893.84
2022-10-15T01:14:32.650Z,100890.09
2022-10-15T01:17:07.914Z,100883.81
2022-10-15T01:20:21.904Z,100880.75
2022-10-15T01:23:12.832Z,100874.34
2022-10-15T01:25:47.944Z,100868.63
2022-10-15T01:28:35.639Z,100866.81
2022-10-15T01:31:26.684Z,100862.84
2022-10-15T01:34:02.661Z,100871.09
2022-10-15T01:36:39.380Z,100863.44
2022-10-15T01:39:31.998Z,100867.25
2022-10-15T01:42:03.744Z,100869.47
2022-10-15T01:44:42.836Z,100866.22
2022-10-15T01:47:29.721Z,100866.09
2022-10-15T01:49:57.848Z,100862.13
2022-10-15T01:52:28.788Z,100868.78
2022-10-15T01:54:55.858Z,100860.66
2022-10-15T01:57:26.110Z,100858.28
2022-10-15T01:59:54.116Z,100863.28
2022-10-15T02:02:20.865Z,100859.59
2022-10-15T02:04:47.600Z,100869.03
2022-10-15T02:07:53.541Z,100865.56
2022-10-15T02:13:24.660Z,100868.81
2022-10-15T02:16:03.112Z,100868.16
2022-10-15T02:18:42.177Z,100864.22
2022-10-15T02:21:28.833Z,100857.59
2022-10-15T02:24:10.269Z,100853.53
2022-10-15T02:26:38.829Z,100855.84
2022-10-15T02:29:07.821Z,100847.50
2022-10-15T02:31:37.653Z,100836.78
2022-10-15T02:34:07.891Z,100838.84
2022-10-15T02:36:35.455Z,100840.31
2022-10-15T02:39:04.456Z,100829.00
2022-10-15T02:41:30.896Z,100831.13
2022-10-15T02:43:57.401Z,100828.53
2022-10-15T02:46:23.869Z,100823.34
2022-10-15T02:48:50.286Z,100826.97
2022-10-15T02:51:16.735Z,100823.47
2022-10-15T02:53:43.188Z,100817.06
2022-10-15T02:56:09.616Z,100816.72
2022-10-15T02:58:36.042Z,100817.69
2022-10-15T03:01:02.627Z,100820.63
2022-10-15T03:03:29.091Z,100815.16
2022-10-15T03:05:55.739Z,100814.47
2022-10-15T03:08:22.393Z,100817.72
2022-10-15T03:10:48.852Z,100813.91
2022-10-15T03:13:15.288Z,100803.66
2022-10-15T03:15:41.781Z,100800.84
2022-10-15T03:18:08.592Z,100795.84
2022-10-15T03:20:35.189Z,100803.06
2022-10-15T03:23:02.027Z,100790.25
2022-10-15T03:25:28.443Z,100785.97
2022-10-15T03:27:54.923Z,100785.72
2022-10-15T03:30:21.449Z,100774.25
2022-10-15T03:32:48.346Z,100773.25
2022-10-15T03:35:14.980Z,100779.31
2022-10-15T03:37:41.459Z,100777.84
2022-10-15T03:40:13.458Z,100781.88
2022-10-15T03:42:41.199Z,100787.25
2022-10-15T03:45:08.436Z,100798.75
2022-10-15T03:47:34.852Z,100807.53
2022-10-15T03:50:01.304Z,100822.03
2022-10-15T03:52:27.748Z,100821.63
2022-10-15T03:54:54.165Z,100820.47
2022-10-15T03:57:20.614Z,100820.72
2022-10-15T03:59:47.027Z,100816.69
2022-10-15T04:02:13.490Z,100820.06
2022-10-15T04:04:40.132Z,100825.66
2022-10-15T04:07:06.604Z,100825.13
2022-10-15T04:09:33.011Z,100824.94
2022-10-15T04:11:59.439Z,100830.88
2022-10-15T04:14:25.994Z,100829.31
2022-10-15T04:16:52.397Z,100821.25
2022-10-15T04:19:18.809Z,100817.22
2022-10-15T04:21:45.199Z,100818.34
2022-10-15T04:24:11.648Z,100822.97
2022-10-15T04:26:38.291Z,100813.53
2022-10-15T04:29:05.143Z,100828.63
2022-10-15T04:31:31.773Z,100803.97
2022-10-15T04:33:58.214Z,100802.53
2022-10-15T04:36:24.817Z,100796.13
2022-10-15T04:38:52.630Z,100805.81
2022-10-15T04:41:19.038Z,100798.25
2022-10-15T04:43:45.550Z,100806.19
2022-10-15T04:46:12.373Z,100804.41
2022-10-15T04:48:42.208Z,100805.66
2022-10-15T04:51:13.881Z,100798.38
2022-10-15T04:53:40.540Z,100800.16
2022-10-15T04:56:08.893Z,100802.88
2022-10-15T04:58:36.261Z,100815.00
2022-10-15T05:01:07.653Z,100811.22
2022-10-15T05:03:36.575Z,100811.09
2022-10-15T05:06:08.308Z,100808.84
2022-10-15T05:08:36.062Z,100810.31
2022-10-15T05:11:07.975Z,100811.75
2022-10-15T05:13:34.901Z,100803.66
2022-10-15T05:16:13.396Z,100802.91
2022-10-15T05:18:40.276Z,100810.88
2022-10-15T05:21:07.432Z,100811.91
2022-10-15T05:23:33.972Z,100821.50
2022-10-15T05:26:02.065Z,100820.69
2022-10-15T05:28:29.311Z,100831.25
2022-10-15T05:30:56.281Z,100834.88
2022-10-15T05:33:22.795Z,100830.38
2022-10-15T05:35:49.240Z,100830.03
2022-10-15T05:38:15.776Z,100827.75
2022-10-15T05:40:48.000Z,100834.19
2022-10-15T05:43:14.463Z,100833.09
2022-10-15T05:45:40.951Z,100820.38
2022-10-15T05:48:07.757Z,100827.47
2022-10-15T05:50:34.196Z,100823.19
2022-10-15T05:53:00.589Z,100816.22
2022-10-15T05:55:26.979Z,100818.00
2022-10-15T05:57:53.359Z,100817.34
2022-10-15T06:00:19.858Z,100822.53
2022-10-15T06:02:47.628Z,100818.00
2022-10-15T06:05:14.187Z,100818.94
2022-10-15T06:07:40.579Z,100826.69
2022-10-15T06:10:07.648Z,100828.69
2022-10-15T06:12:34.526Z,100823.22
2022-10-15T06:15:01.020Z,100821.88
2022-10-15T06:17:27.444Z,100824.47
2022-10-15T06:19:53.855Z,100828.41
2022-10-15T06:22:20.267Z,100823.31
2022-10-15T06:24:46.677Z,100828.63
2022-10-15T06:27:13.869Z,100828.84
2022-10-15T06:29:40.588Z,100823.66
2022-10-15T06:32:11.704Z,100816.31
2022-10-15T06:34:38.199Z,100827.31
2022-10-15T06:37:04.621Z,100832.47
2022-10-15T06:39:31.022Z,100833.25
2022-10-15T06:41:57.448Z,100841.53
2022-10-15T06:44:24.768Z,100849.50
2022-10-15T06:46:51.205Z,100862.13
2022-10-15T06:49:17.614Z,100856.03
2022-10-15T06:51:44.120Z,100863.81
2022-10-15T06:54:10.534Z,100864.72
2022-10-15T06:56:36.949Z,100871.59
2022-10-15T06:59:05.316Z,100880.03
2022-10-15T07:01:31.885Z,100885.44
2022-10-15T07:03:58.286Z,100885.44
2022-10-15T07:06:25.579Z,100885.44
2022-10-15T07:08:51.969Z,100894.00
2022-10-15T07:11:18.429Z,100885.91
2022-10-15T07:13:44.836Z,100885.66
2022-10-15T07:16:12.621Z,100887.56
2022-10-15T07:18:40.022Z,100893.00
2022-10-15T07:21:08.433Z,100891.50
2022-10-15T07:23:35.109Z,100897.03
2022-10-15T07:26:02.079Z,100911.34
2022-10-15T07:28:28.604Z,100901.91
2022-10-15T07:30:55.089Z,100914.88
2022-10-15T07:33:21.577Z,100913.53
2022-10-15T07:35:48.307Z,100910.25
2022-10-15T07:38:14.724Z,100903.38
2022-10-15T07:40:41.162Z,100902.81
2022-10-15T07:43:07.574Z,100901.44
2022-10-15T07:45:34.086Z,100906.88
2022-10-15T07:48:00.509Z,100906.88
2022-10-15T07:50:29.299Z,100913.28
2022-10-15T07:52:58.747Z,100914.66
2022-10-15T07:55:25.201Z,100919.25
2022-10-15T07:57:51.603Z,100920.25
2022-10-15T08:00:18.240Z,100921.97
2022-10-15T08:02:45.437Z,100932.53
2022-10-15T08:05:11.871Z,100936.16
2022-10-15T08:07:38.302Z,100935.72
2022-10-15T08:10:06.352Z,100933.81
2022-10-15T08:12:32.779Z,100931.22
2022-10-15T08:14:59.345Z,100935.03
2022-10-15T08:17:25.756Z,100925.13
2022-10-15T08:19:52.209Z,100923.75
2022-10-15T08:22:18.664Z,100925.53
2022-10-15T08:24:45.101Z,100923.19
2022-10-15T08:27:11.557Z,100927.69
2022-10-15T08:29:37.998Z,100924.63
2022-10-15T08:32:04.563Z,100923.94
2022-10-15T08:34:30.980Z,100920.69
2022-10-15T08:36:57.364Z,100932.28
2022-10-15T08:39:23.776Z,100931.06
2022-10-15T08:41:54.837Z,100923.03
2022-10-15T08:44:31.388Z,100925.25
2022-10-15T08:47:27.145Z,100933.25
2022-10-15T08:50:02.753Z,100930.28
2022-10-15T08:52:43.149Z,100929.72
2022-10-15T08:55:13.083Z,100926.41
2022-10-15T08:58:02.021Z,100934.72
2022-10-15T09:00:42.197Z,100934.28
2022-10-15T09:03:29.342Z,100935.16
2022-10-15T09:06:20.719Z,100938.47
2022-10-15T09:08:50.128Z,100947.72
2022-10-15T09:11:35.633Z,100938.78
2022-10-15T09:14:05.348Z,100948.09
2022-10-15T09:16:38.892Z,100955.63
2022-10-15T09:19:14.730Z,100960.25
2022-10-15T09:21:41.397Z,100948.25
2022-10-15T09:24:11.670Z,100950.28
2022-10-15T09:27:10.539Z,100954.19
2022-10-15T09:29:46.665Z,100952.69
2022-10-15T09:32:23.567Z,100952.88
2022-10-15T09:35:22.177Z,100960.91
2022-10-15T09:38:03.466Z,100957.41
2022-10-15T09:41:16.148Z,100951.28
2022-10-15T09:43:46.712Z,100953.13
2022-10-15T09:46:13.344Z,100946.72
2022-10-15T09:48:52.638Z,100946.59
2022-10-15T09:51:21.918Z,100953.22
2022-10-15T09:54:10.116Z,100945.41
2022-10-15T09:56:39.477Z,100945.69
2022-10-15T09:59:08.809Z,100949.41
2022-10-15T10:01:36.088Z,100949.59
2022-10-15T10:04:14.288Z,100949.59
2022-10-15T10:06:53.863Z,100953.78
2022-10-15T10:09:23.483Z,100948.72
2022-10-15T10:12:00.675Z,100949.41
2022-10-15T10:14:39.230Z,100957.59
2022-10-15T10:17:18.610Z,100961.44
2022-10-15T10:20:01.970Z,100960.91
2022-10-15T10:22:28.841Z,100958.19
2022-10-15T10:24:55.388Z,100956.88
2022-10-15T10:27:29.188Z,100953.66
2022-10-15T10:30:07.454Z,100949.19
2022-10-15T10:32:35.203Z,100946.69
2022-10-15T10:35:03.980Z,100949.75
2022-10-15T10:37:42.504Z,100949.94
2022-10-15T10:40:30.309Z,100954.06
2022-10-15T10:43:16.468Z,100947.16
2022-10-15T10:46:04.392Z,100942.19
2022-10-15T10:48:43.119Z,100943.47
2022-10-15T10:51:19.696Z,100942.78
2022-10-15T10:53:51.051Z,100951.16
2022-10-15T10:56:22.396Z,100946.25
2022-10-15T10:58:55.420Z,100938.38
2022-10-15T11:01:21.990Z,100941.44
2022-10-15T11:03:49.337Z,100940.94
2022-10-15T11:06:46.358Z,100940.19
2022-10-15T11:09:34.515Z,100933.19
2022-10-15T11:12:28.954Z,100932.59
2022-10-15T11:15:17.518Z,100934.56
2022-10-15T11:17:56.862Z,100924.78
2022-10-15T11:20:53.086Z,100929.81
2022-10-15T11:23:46.140Z,100930.53
2022-10-15T11:26:51.474Z,100927.59
2022-10-15T11:29:35.769Z,100929.22
2022-10-15T11:32:26.004Z,100921.13
2022-10-15T11:35:20.206Z,100921.38
2022-10-15T11:38:19.211Z,100917.59
2022-10-15T11:41:11.356Z,100915.97
2022-10-15T11:44:02.589Z,100918.00
2022-10-15T11:46:44.156Z,100919.03
2022-10-15T11:49:52.024Z,100906.94
2022-10-15T11:52:27.795Z,100912.94
2022-10-15T11:55:16.004Z,100909.19
2022-10-15T11:57:44.275Z,100901.13
2022-10-15T12:00:20.410Z,100899.53
2022-10-15T12:02:49.412Z,100894.66
2022-10-15T12:05:27.822Z,100889.28
2022-10-15T12:07:55.705Z,100888.53
2022-10-15T12:10:47.773Z,100895.88
2022-10-15T12:13:56.122Z,100895.72
2022-10-15T12:16:28.468Z,100883.56
2022-10-15T12:19:32.471Z,100882.41
2022-10-15T12:21:58.818Z,100874.34
2022-10-15T12:24:37.425Z,100872.28
2022-10-15T12:27:19.010Z,100866.16
2022-10-15T12:29:51.055Z,100876.13
2022-10-15T12:32:25.948Z,100875.31
2022-10-15T12:34:57.889Z,100868.06
2022-10-15T12:37:27.698Z,100866.44
2022-10-15T12:39:57.262Z,100857.63
2022-10-15T12:42:37.629Z,100849.31
2022-10-15T12:45:17.488Z,100848.66
2022-10-15T12:47:54.648Z,100854.06
2022-10-15T12:50:29.996Z,100853.03
2022-10-15T12:53:06.415Z,100851.44
2022-10-15T12:55:35.443Z,100851.59
2022-10-15T12:58:35.000Z,100841.66
2022-10-15T13:01:13.623Z,100845.22
2022-10-15T13:03:51.852Z,100841.88
2022-10-15T13:06:21.286Z,100836.66
2022-10-15T13:08:51.555Z,100837.31
2022-10-15T13:11:23.936Z,100824.41
2022-10-15T13:13:56.386Z,100835.22
2022-10-15T13:16:23.068Z,100832.09
2022-10-15T13:18:52.169Z,100829.00
2022-10-15T13:21:18.666Z,100832.13
2022-10-15T13:23:50.047Z,100820.97
2022-10-15T13:26:26.898Z,100825.13
2022-10-15T13:28:57.270Z,100823.06
2022-10-15T13:31:36.965Z,100820.69
2022-10-15T13:34:22.124Z,100817.91
2022-10-15T13:36:49.820Z,100819.19
2022-10-15T13:39:27.190Z,100821.25
2022-10-15T13:42:05.906Z,100816.31
2022-10-15T13:44:32.433Z,100818.03
2022-10-15T13:46:58.935Z,100817.66
2022-10-15T13:49:28.067Z,100818.66
2022-10-15T13:51:55.840Z,100815.00
2022-10-15T13:54:31.395Z,100825.28
2022-10-15T13:57:01.718Z,100818.59
2022-10-15T13:59:30.756Z,100813.59
2022-10-15T14:02:01.148Z,100808.28
2022-10-15T14:04:30.410Z,100812.63
2022-10-15T14:07:03.282Z,100816.25
2022-10-15T14:09:36.251Z,100814.09
2022-10-15T14:12:06.343Z,100818.53
2022-10-15T14:14:35.802Z,100813.13
2022-10-15T14:17:16.917Z,100813.66
2022-10-15T14:20:02.194Z,100814.81
2022-10-15T14:22:36.848Z,100813.03
2022-10-15T14:25:10.222Z,100810.94
2022-10-15T14:27:36.777Z,100810.47
2022-10-15T14:30:26.313Z,100811.88
2022-10-15T14:32:52.806Z,100810.97
2022-10-15T14:35:32.796Z,100822.78
2022-10-15T14:38:05.076Z,100809.78
2022-10-15T14:40:31.652Z,100811.44
2022-10-15T14:43:03.633Z,100808.66
2022-10-15T14:45:39.460Z,100804.69
2022-10-15T14:48:19.189Z,100808.53
2022-10-15T14:50:46.137Z,100815.41
2022-10-15T14:53:19.992Z,100809.03
2022-10-15T14:56:15.594Z,100812.31
2022-10-15T14:58:51.936Z,100810.81
2022-10-15T15:01:20.131Z,100801.22
2022-10-15T15:03:55.583Z,100805.28
2022-10-15T15:06:21.989Z,100798.50
2022-10-15T15:08:48.528Z,100799.50
2022-10-15T15:11:20.463Z,100802.16
2022-10-15T15:13:47.953Z,100800.38
2022-10-15T15:16:16.792Z,100804.47
2022-10-15T15:18:43.993Z,100803.31
2022-10-15T15:21:16.591Z,100803.16
2022-10-15T15:23:43.620Z,100806.59
2022-10-15T15:26:10.062Z,100801.38
2022-10-15T15:28:36.641Z,100804.63
2022-10-15T15:31:06.713Z,100803.63
2022-10-15T15:33:33.855Z,100812.94
2022-10-15T15:36:07.426Z,100819.69
2022-10-15T15:41:17.767Z,100828.41
2022-10-15T15:43:45.616Z,100831.03
2022-10-15T15:46:12.387Z,100824.84
2022-10-15T15:48:38.803Z,100829.88
2022-10-15T15:51:17.296Z,100829.09
2022-10-15T15:53:43.733Z,100829.00
2022-10-15T15:56:10.143Z,100832.16
2022-10-15T15:58:36.608Z,100828.34
2022-10-15T16:01:03.229Z,100834.19
2022-10-15T16:03:29.613Z,100834.84
2022-10-15T16:05:56.080Z,100838.97
2022-10-15T16:08:22.570Z,100845.66
2022-10-15T16:10:48.984Z,100837.59
2022-10-15T16:13:15.632Z,100836.44
2022-10-15T16:15:42.049Z,100838.78
2022-10-15T16:18:09.237Z,100849.03
2022-10-15T16:20:39.395Z,100859.47
2022-10-15T16:23:05.952Z,100866.66
2022-10-15T16:25:32.384Z,100864.97
2022-10-15T16:28:01.701Z,100870.19
2022-10-15T16:30:28.441Z,100863.25
2022-10-15T16:32:55.131Z,100871.81
2022-10-15T16:35:21.558Z,100872.19
2022-10-15T16:37:48.211Z,100882.25
2022-10-15T16:40:15.602Z,100878.59
2022-10-15T16:42:42.010Z,100885.22
2022-10-15T16:45:09.605Z,100896.22
2022-10-15T16:47:36.009Z,100898.44
2022-10-15T16:50:04.022Z,100899.78
2022-10-15T16:52:30.558Z,100905.53
2022-10-15T16:54:56.974Z,100908.88
2022-10-15T16:57:23.416Z,100908.94
2022-10-15T16:59:49.861Z,100908.06
2022-10-15T17:02:16.269Z,100916.59
2022-10-15T17:04:42.677Z,100919.09
2022-10-15T17:07:09.152Z,100921.63
2022-10-15T17:09:35.692Z,100923.25
2022-10-15T17:12:02.171Z,100929.25
2022-10-15T17:14:28.902Z,100936.06
2022-10-15T17:16:55.324Z,100938.50
2022-10-15T17:19:27.836Z,100939.22
2022-10-15T17:21:57.193Z,100954.59
2022-10-15T17:24:23.827Z,100954.41
2022-10-15T17:26:50.328Z,100955.63
2022-10-15T17:29:24.737Z,100966.38
2022-10-15T17:31:53.022Z,100970.59
2022-10-15T17:34:19.506Z,100972.22
2022-10-15T17:36:48.285Z,100971.31
2022-10-15T17:39:17.510Z,100969.31
2022-10-15T17:41:44.063Z,100969.56
2022-10-15T17:44:12.385Z,100971.00
2022-10-15T17:46:39.290Z,100973.19
2022-10-15T17:49:07.868Z,100978.19
2022-10-15T17:51:34.766Z,100968.41
2022-10-15T17:54:01.640Z,100982.50
2022-10-15T17:56:34.370Z,100984.09
2022-10-15T17:59:03.461Z,100989.81
2022-10-15T18:01:56.282Z,100995.13
2022-10-15T18:04:18.760Z,101004.03
2022-10-15T18:06:45.445Z,101000.03
2022-10-15T18:09:11.956Z,101013.84
2022-10-15T18:11:38.580Z,101006.84
2022-10-15T18:14:05.017Z,101009.63
2022-10-15T18:16:32.213Z,101011.53
2022-10-15T18:18:58.910Z,101009.94
2022-10-15T18:21:27.363Z,101017.97
2022-10-15T18:23:56.345Z,101014.84
2022-10-15T18:26:23.098Z,101016.66
2022-10-15T18:28:51.573Z,101017.34
2022-10-15T18:31:18.353Z,101013.47
2022-10-15T18:33:48.167Z,101017.25
2022-10-15T18:36:18.754Z,101009.84
2022-10-15T18:38:45.455Z,101023.28
2022-10-15T18:41:23.447Z,101014.47
2022-10-15T18:43:58.801Z,101010.84
2022-10-15T18:46:27.499Z,101009.25
2022-10-15T18:48:54.631Z,101013.75
2022-10-15T18:51:22.086Z,101019.75
2022-10-15T18:53:48.737Z,101021.25
2022-10-15T18:56:15.292Z,101021.84
2022-10-15T18:58:45.546Z,101020.66
2022-10-15T19:01:13.887Z,101025.63
2022-10-15T19:03:40.533Z,101020.94
2022-10-15T19:06:06.941Z,101032.63
2022-10-15T19:08:34.072Z,101035.28
2022-10-15T19:11:05.937Z,101033.97
2022-10-15T19:13:32.332Z,101030.34
2022-10-15T19:16:01.505Z,101040.94
2022-10-15T19:18:28.522Z,101037.78
2022-10-15T19:20:55.127Z,101041.19
2022-10-15T19:23:21.905Z,101049.75
2022-10-15T19:25:48.346Z,101045.56
2022-10-15T19:28:15.071Z,101051.66
2022-10-15T19:30:41.508Z,101046.16
2022-10-15T19:33:08.173Z,101049.44
2022-10-15T19:35:39.973Z,101054.97
2022-10-15T19:38:06.846Z,101058.38
2022-10-15T19:40:38.142Z,101054.97
2022-10-15T19:43:05.800Z,101060.16
2022-10-15T19:45:37.303Z,101060.16
2022-10-15T19:48:04.338Z,101059.75
2022-10-15T19:50:30.848Z,101057.94
2022-10-15T19:52:57.292Z,101066.63
2022-10-15T19:55:23.730Z,101059.75
2022-10-15T19:57:50.129Z,101066.06
2022-10-15T20:00:23.095Z,101073.41
2022-10-15T20:02:53.509Z,101064.19
2022-10-15T20:05:19.979Z,101076.63
2022-10-15T20:07:46.426Z,101075.13
2022-10-15T20:10:13.160Z,101073.63
2022-10-15T20:12:39.622Z,101080.84
2022-10-15T20:15:06.770Z,101088.03
2022-10-15T20:17:33.168Z,101085.66
2022-10-15T20:19:59.611Z,101087.56
2022-10-15T20:22:26.417Z,101102.28
2022-10-15T20:24:52.966Z,101101.41
2022-10-15T20:27:19.384Z,101103.28
2022-10-15T20:29:45.789Z,101108.69
2022-10-15T20:32:30.258Z,101119.22
2022-10-15T20:35:01.102Z,101116.69
2022-10-15T20:37:28.559Z,101113.31
2022-10-15T20:42:21.417Z,101122.91
2022-10-15T20:44:47.811Z,101121.91
2022-10-15T20:47:15.660Z,101127.09
2022-10-15T20:49:45.374Z,101129.63
2022-10-15T20:52:13.720Z,101129.50
2022-10-15T20:54:40.128Z,101143.41
2022-10-15T20:57:06.574Z,101145.94
2022-10-15T20:59:33.235Z,101143.22
2022-10-15T21:01:59.695Z,101150.31
2022-10-15T21:04:26.114Z,101154.72
2022-10-15T21:06:52.553Z,101151.13
2022-10-15T21:09:18.977Z,101153.50
2022-10-15T21:11:46.518Z,101161.09
2022-10-15T21:14:13.749Z,101163.59
2022-10-15T21:16:40.799Z,101161.88
2022-10-15T21:19:07.282Z,101172.09
2022-10-15T21:21:33.774Z,101178.09
2022-10-15T21:24:00.480Z,101184.97
2022-10-15T21:26:26.912Z,101182.38
2022-10-15T21:28:58.244Z,101183.31
2022-10-15T21:31:26.429Z,101191.31
2022-10-15T21:33:54.909Z,101191.41
2022-10-15T21:36:26.968Z,101194.34
2022-10-15T21:38:56.026Z,101196.25
2022-10-15T21:41:23.298Z,101194.34
2022-10-15T21:46:21.073Z,101207.22
2022-10-15T21:48:47.948Z,101199.53
2022-10-15T21:51:16.676Z,101210.72
2022-10-15T21:53:43.324Z,101210.53
2022-10-15T21:56:09.858Z,101204.75
2022-10-15T21:58:38.174Z,101202.84
2022-10-15T22:01:09.647Z,101209.19
2022-10-15T22:03:36.195Z,101209.19
2022-10-15T22:06:02.883Z,101214.50
2022-10-15T22:08:30.059Z,101212.25
2022-10-15T22:11:09.205Z,101220.75
2022-10-15T22:13:36.189Z,101218.63
2022-10-15T22:16:03.515Z,101222.94
2022-10-15T22:18:29.918Z,101232.41
2022-10-15T22:20:56.701Z,101229.72
2022-10-15T22:23:26.973Z,101231.50
2022-10-15T22:25:58.706Z,101239.44
2022-10-15T22:28:25.668Z,101238.53
2022-10-15T22:30:52.278Z,101239.63
2022-10-15T22:33:18.732Z,101244.63
2022-10-15T22:35:45.211Z,101240.91
2022-10-15T22:38:11.629Z,101237.28
2022-10-15T22:40:38.045Z,101247.59
2022-10-15T22:43:04.551Z,101243.28
2022-10-15T22:45:30.957Z,101238.78
2022-10-15T22:47:57.358Z,101239.56
2022-10-15T22:50:23.774Z,101245.78
2022-10-15T22:52:50.174Z,101242.41
2022-10-15T22:55:16.722Z,101250.97
2022-10-15T22:57:44.083Z,101239.88
2022-10-15T23:00:11.260Z,101251.22
2022-10-15T23:02:37.669Z,101247.13
2022-10-15T23:05:04.285Z,101250.41
2022-10-15T23:07:30.726Z,101258.69
2022-10-15T23:09:57.139Z,101261.94
2022-10-15T23:12:23.897Z,101253.94
2022-10-15T23:14:50.523Z,101249.25
2022-10-15T23:17:16.986Z,101252.78
2022-10-15T23:19:43.401Z,101258.91
2022-10-15T23:22:09.920Z,101256.16
2022-10-15T23:24:36.332Z,101252.34
2022-10-15T23:27:02.838Z,101254.03
2022-10-15T23:29:29.276Z,101250.75
2022-10-15T23:31:55.734Z,101254.38
2022-10-15T23:34:24.762Z,101251.66
2022-10-15T23:36:52.029Z,101254.25
2022-10-15T23:39:21.388Z,101257.75
2022-10-15T23:41:47.841Z,101246.66
2022-10-15T23:44:14.585Z,101258.00
2022-10-15T23:46:41.247Z,101260.59
2022-10-15T23:49:08.485Z,101261.59
2022-10-15T23:51:35.013Z,101261.38
2022-10-15T23:54:02.556Z,101261.25
2022-10-15T23:56:30.182Z,101263.75
2022-10-15T23:58:59.209Z,101260.25
